sensor_id;sensor_type;location;lat;lon;timestamp;P1;durP1;ratioP1;P2;durP2;ratioP2
9156;SDS011;4613;48.392;9.998;2023-07-29T00:01:48;2.30;;;2.10;;
9156;SDS011;4613;48.392;9.998;2023-07-29T00:04:45;2.10;;;1.93;;
9156;SDS011;4613;48.392;9.998;2023-07-29T00:07:41;2.40;;;2.20;;
9156;SDS011;4613;48.392;9.998;2023-07-29T00:10:37;2.33;;;2.13;;
9156;SDS011;4613;48.392;9.998;2023-07-29T00:13:34;2.00;;;1.90;;
9156;SDS011;4613;48.392;9.998;2023-07-29T00:16:30;2.60;;;2.37;;
9156;SDS011;4613;48.392;9.998;2023-07-29T00:19:26;2.90;;;2.60;;
9156;SDS011;4613;48.392;9.998;2023-07-29T00:22:30;2.60;;;2.37;;
9156;SDS011;4613;48.392;9.998;2023-07-29T00:25:26;2.03;;;1.93;;
9156;SDS011;4613;48.392;9.998;2023-07-29T00:28:22;2.90;;;1.93;;
9156;SDS011;4613;48.392;9.998;2023-07-29T00:31:18;2.97;;;2.37;;
9156;SDS011;4613;48.392;9.998;2023-07-29T00:34:14;2.17;;;1.97;;
9156;SDS011;4613;48.392;9.998;2023-07-29T00:37:14;2.40;;;2.20;;
9156;SDS011;4613;48.392;9.998;2023-07-29T00:40:21;2.13;;;1.87;;
9156;SDS011;4613;48.392;9.998;2023-07-29T00:43:18;2.00;;;1.90;;
9156;SDS011;4613;48.392;9.998;2023-07-29T00:46:14;4.20;;;2.17;;
9156;SDS011;4613;48.392;9.998;2023-07-29T00:49:12;2.17;;;1.97;;
9156;SDS011;4613;48.392;9.998;2023-07-29T00:52:08;2.53;;;2.23;;
9156;SDS011;4613;48.392;9.998;2023-07-29T00:55:06;3.23;;;2.67;;
9156;SDS011;4613;48.392;9.998;2023-07-29T00:58:03;3.20;;;2.57;;
9156;SDS011;4613;48.392;9.998;2023-07-29T01:03:53;2.83;;;2.50;;
9156;SDS011;4613;48.392;9.998;2023-07-29T01:06:59;3.90;;;2.23;;
9156;SDS011;4613;48.392;9.998;2023-07-29T01:13:27;3.67;;;3.00;;
9156;SDS011;4613;48.392;9.998;2023-07-29T01:16:42;4.87;;;3.20;;
9156;SDS011;4613;48.392;9.998;2023-07-29T01:23:01;3.93;;;2.70;;
9156;SDS011;4613;48.392;9.998;2023-07-29T01:25:58;4.27;;;2.43;;
9156;SDS011;4613;48.392;9.998;2023-07-29T01:28:54;2.93;;;2.37;;
9156;SDS011;4613;48.392;9.998;2023-07-29T01:31:50;3.27;;;2.30;;
9156;SDS011;4613;48.392;9.998;2023-07-29T01:35:39;3.87;;;2.47;;
9156;SDS011;4613;48.392;9.998;2023-07-29T01:38:30;2.80;;;2.10;;
9156;SDS011;4613;48.392;9.998;2023-07-29T01:41:30;3.73;;;2.53;;
9156;SDS011;4613;48.392;9.998;2023-07-29T01:44:26;3.03;;;2.53;;
9156;SDS011;4613;48.392;9.998;2023-07-29T01:47:23;2.67;;;2.20;;
9156;SDS011;4613;48.392;9.998;2023-07-29T01:50:19;2.27;;;2.07;;
9156;SDS011;4613;48.392;9.998;2023-07-29T01:53:15;2.73;;;2.30;;
9156;SDS011;4613;48.392;9.998;2023-07-29T01:56:11;3.13;;;2.57;;
9156;SDS011;4613;48.392;9.998;2023-07-29T01:59:14;3.87;;;2.70;;
9156;SDS011;4613;48.392;9.998;2023-07-29T02:02:12;3.90;;;2.40;;
9156;SDS011;4613;48.392;9.998;2023-07-29T02:05:15;2.70;;;2.40;;
9156;SDS011;4613;48.392;9.998;2023-07-29T02:08:11;4.07;;;2.60;;
9156;SDS011;4613;48.392;9.998;2023-07-29T02:11:07;3.60;;;2.70;;
9156;SDS011;4613;48.392;9.998;2023-07-29T02:14:03;4.37;;;3.00;;
9156;SDS011;4613;48.392;9.998;2023-07-29T02:16:59;3.60;;;2.83;;
9156;SDS011;4613;48.392;9.998;2023-07-29T02:19:55;3.40;;;2.67;;
9156;SDS011;4613;48.392;9.998;2023-07-29T02:22:51;2.60;;;2.40;;
9156;SDS011;4613;48.392;9.998;2023-07-29T02:25:47;4.13;;;2.70;;
9156;SDS011;4613;48.392;9.998;2023-07-29T02:28:43;3.00;;;2.53;;
9156;SDS011;4613;48.392;9.998;2023-07-29T02:31:39;3.23;;;2.50;;
9156;SDS011;4613;48.392;9.998;2023-07-29T02:34:35;4.03;;;2.70;;
9156;SDS011;4613;48.392;9.998;2023-07-29T02:37:31;7.57;;;2.60;;
9156;SDS011;4613;48.392;9.998;2023-07-29T02:40:27;3.23;;;2.50;;
9156;SDS011;4613;48.392;9.998;2023-07-29T02:43:24;3.33;;;2.63;;
9156;SDS011;4613;48.392;9.998;2023-07-29T02:46:20;3.00;;;2.60;;
9156;SDS011;4613;48.392;9.998;2023-07-29T02:49:16;3.70;;;3.00;;
9156;SDS011;4613;48.392;9.998;2023-07-29T02:52:12;4.07;;;2.87;;
9156;SDS011;4613;48.392;9.998;2023-07-29T02:55:08;4.07;;;2.70;;
9156;SDS011;4613;48.392;9.998;2023-07-29T02:58:04;2.70;;;2.50;;
9156;SDS011;4613;48.392;9.998;2023-07-29T03:01:03;4.23;;;2.97;;
9156;SDS011;4613;48.392;9.998;2023-07-29T03:04:00;2.77;;;2.27;;
9156;SDS011;4613;48.392;9.998;2023-07-29T03:07:09;2.50;;;2.30;;
9156;SDS011;4613;48.392;9.998;2023-07-29T03:10:05;2.77;;;2.50;;
9156;SDS011;4613;48.392;9.998;2023-07-29T03:13:01;3.37;;;2.60;;
9156;SDS011;4613;48.392;9.998;2023-07-29T03:16:05;5.43;;;2.90;;
9156;SDS011;4613;48.392;9.998;2023-07-29T03:19:03;3.23;;;2.53;;
9156;SDS011;4613;48.392;9.998;2023-07-29T03:21:59;3.43;;;2.90;;
9156;SDS011;4613;48.392;9.998;2023-07-29T03:24:55;3.80;;;3.20;;
9156;SDS011;4613;48.392;9.998;2023-07-29T03:27:51;5.70;;;3.50;;
9156;SDS011;4613;48.392;9.998;2023-07-29T03:30:47;3.33;;;2.97;;
9156;SDS011;4613;48.392;9.998;2023-07-29T03:33:43;3.80;;;2.90;;
9156;SDS011;4613;48.392;9.998;2023-07-29T03:36:39;5.60;;;3.50;;
9156;SDS011;4613;48.392;9.998;2023-07-29T03:39:36;5.33;;;3.10;;
9156;SDS011;4613;48.392;9.998;2023-07-29T03:42:32;3.50;;;2.63;;
9156;SDS011;4613;48.392;9.998;2023-07-29T03:45:28;3.73;;;3.30;;
9156;SDS011;4613;48.392;9.998;2023-07-29T03:48:24;3.83;;;2.80;;
9156;SDS011;4613;48.392;9.998;2023-07-29T03:51:20;4.77;;;3.20;;
9156;SDS011;4613;48.392;9.998;2023-07-29T03:54:17;3.53;;;2.90;;
9156;SDS011;4613;48.392;9.998;2023-07-29T03:57:13;3.70;;;3.03;;
9156;SDS011;4613;48.392;9.998;2023-07-29T04:00:09;3.50;;;2.90;;
9156;SDS011;4613;48.392;9.998;2023-07-29T04:03:08;3.27;;;2.80;;
9156;SDS011;4613;48.392;9.998;2023-07-29T04:06:04;3.17;;;2.87;;
9156;SDS011;4613;48.392;9.998;2023-07-29T04:09:07;4.03;;;3.00;;
9156;SDS011;4613;48.392;9.998;2023-07-29T04:12:03;3.50;;;2.83;;
9156;SDS011;4613;48.392;9.998;2023-07-29T04:14:59;4.00;;;2.90;;
9156;SDS011;4613;48.392;9.998;2023-07-29T04:17:55;4.60;;;3.57;;
9156;SDS011;4613;48.392;9.998;2023-07-29T04:20:51;4.13;;;3.50;;
9156;SDS011;4613;48.392;9.998;2023-07-29T04:23:47;3.90;;;3.10;;
9156;SDS011;4613;48.392;9.998;2023-07-29T04:26:43;3.83;;;3.10;;
9156;SDS011;4613;48.392;9.998;2023-07-29T04:29:40;5.40;;;3.47;;
9156;SDS011;4613;48.392;9.998;2023-07-29T04:32:36;3.20;;;2.90;;
9156;SDS011;4613;48.392;9.998;2023-07-29T04:35:32;3.83;;;3.10;;
9156;SDS011;4613;48.392;9.998;2023-07-29T04:38:32;3.17;;;2.87;;
9156;SDS011;4613;48.392;9.998;2023-07-29T04:41:28;3.10;;;2.80;;
9156;SDS011;4613;48.392;9.998;2023-07-29T04:44:24;4.03;;;3.13;;
9156;SDS011;4613;48.392;9.998;2023-07-29T04:47:20;3.33;;;3.00;;
9156;SDS011;4613;48.392;9.998;2023-07-29T04:50:16;3.67;;;2.87;;
9156;SDS011;4613;48.392;9.998;2023-07-29T04:53:12;3.53;;;2.90;;
9156;SDS011;4613;48.392;9.998;2023-07-29T04:56:08;4.53;;;2.90;;
9156;SDS011;4613;48.392;9.998;2023-07-29T04:59:04;2.90;;;2.57;;
9156;SDS011;4613;48.392;9.998;2023-07-29T05:02:01;2.90;;;2.70;;
9156;SDS011;4613;48.392;9.998;2023-07-29T05:05:04;3.13;;;2.83;;
9156;SDS011;4613;48.392;9.998;2023-07-29T05:08:01;3.13;;;2.83;;
9156;SDS011;4613;48.392;9.998;2023-07-29T05:10:57;4.27;;;2.80;;
9156;SDS011;4613;48.392;9.998;2023-07-29T05:13:53;3.43;;;3.10;;
9156;SDS011;4613;48.392;9.998;2023-07-29T05:16:49;2.87;;;2.60;;
9156;SDS011;4613;48.392;9.998;2023-07-29T05:19:45;3.30;;;3.00;;
9156;SDS011;4613;48.392;9.998;2023-07-29T05:22:41;3.50;;;3.10;;
9156;SDS011;4613;48.392;9.998;2023-07-29T05:25:37;3.23;;;2.97;;
9156;SDS011;4613;48.392;9.998;2023-07-29T05:28:33;3.63;;;3.00;;
9156;SDS011;4613;48.392;9.998;2023-07-29T05:31:29;3.87;;;3.30;;
9156;SDS011;4613;48.392;9.998;2023-07-29T05:34:26;5.20;;;3.10;;
9156;SDS011;4613;48.392;9.998;2023-07-29T05:37:22;4.47;;;3.23;;
9156;SDS011;4613;48.392;9.998;2023-07-29T05:40:18;3.90;;;3.20;;
9156;SDS011;4613;48.392;9.998;2023-07-29T05:43:14;4.93;;;3.43;;
9156;SDS011;4613;48.392;9.998;2023-07-29T05:46:10;5.70;;;3.30;;
9156;SDS011;4613;48.392;9.998;2023-07-29T05:49:06;3.87;;;3.10;;
9156;SDS011;4613;48.392;9.998;2023-07-29T05:52:05;3.13;;;2.77;;
9156;SDS011;4613;48.392;9.998;2023-07-29T05:55:01;5.07;;;3.47;;
9156;SDS011;4613;48.392;9.998;2023-07-29T05:57:57;3.80;;;3.40;;
9156;SDS011;4613;48.392;9.998;2023-07-29T06:00:53;5.77;;;3.77;;
9156;SDS011;4613;48.392;9.998;2023-07-29T06:03:51;4.60;;;3.83;;
9156;SDS011;4613;48.392;9.998;2023-07-29T06:06:47;6.37;;;3.40;;
9156;SDS011;4613;48.392;9.998;2023-07-29T06:09:51;6.47;;;3.60;;
9156;SDS011;4613;48.392;9.998;2023-07-29T06:12:49;3.63;;;3.20;;
9156;SDS011;4613;48.392;9.998;2023-07-29T06:15:45;3.33;;;3.03;;
9156;SDS011;4613;48.392;9.998;2023-07-29T06:18:41;3.40;;;3.10;;
9156;SDS011;4613;48.392;9.998;2023-07-29T06:21:37;3.40;;;3.00;;
9156;SDS011;4613;48.392;9.998;2023-07-29T06:24:33;3.30;;;3.00;;
9156;SDS011;4613;48.392;9.998;2023-07-29T06:27:29;3.40;;;3.10;;
9156;SDS011;4613;48.392;9.998;2023-07-29T06:30:24;4.70;;;3.23;;
9156;SDS011;4613;48.392;9.998;2023-07-29T06:33:20;3.53;;;3.10;;
9156;SDS011;4613;48.392;9.998;2023-07-29T06:36:16;3.10;;;2.80;;
9156;SDS011;4613;48.392;9.998;2023-07-29T06:39:13;4.10;;;2.80;;
9156;SDS011;4613;48.392;9.998;2023-07-29T06:42:09;2.60;;;2.40;;
9156;SDS011;4613;48.392;9.998;2023-07-29T06:45:05;3.00;;;2.70;;
9156;SDS011;4613;48.392;9.998;2023-07-29T06:48:02;2.50;;;2.30;;
9156;SDS011;4613;48.392;9.998;2023-07-29T06:50:58;2.50;;;2.30;;
9156;SDS011;4613;48.392;9.998;2023-07-29T06:53:57;2.97;;;2.63;;
9156;SDS011;4613;48.392;9.998;2023-07-29T06:56:53;3.23;;;2.57;;
9156;SDS011;4613;48.392;9.998;2023-07-29T06:59:49;2.33;;;2.13;;
9156;SDS011;4613;48.392;9.998;2023-07-29T07:02:45;2.10;;;1.87;;
9156;SDS011;4613;48.392;9.998;2023-07-29T07:05:47;2.20;;;1.97;;
9156;SDS011;4613;48.392;9.998;2023-07-29T07:08:43;2.00;;;1.87;;
9156;SDS011;4613;48.392;9.998;2023-07-29T07:11:39;2.17;;;1.97;;
9156;SDS011;4613;48.392;9.998;2023-07-29T07:14:36;2.37;;;2.10;;
9156;SDS011;4613;48.392;9.998;2023-07-29T07:17:32;2.20;;;2.00;;
9156;SDS011;4613;48.392;9.998;2023-07-29T07:20:29;2.20;;;2.00;;
9156;SDS011;4613;48.392;9.998;2023-07-29T07:23:25;6.47;;;2.23;;
9156;SDS011;4613;48.392;9.998;2023-07-29T07:26:21;1.83;;;1.63;;
9156;SDS011;4613;48.392;9.998;2023-07-29T07:29:17;1.73;;;1.63;;
9156;SDS011;4613;48.392;9.998;2023-07-29T07:32:13;1.80;;;1.70;;
9156;SDS011;4613;48.392;9.998;2023-07-29T07:35:03;2.20;;;1.83;;
9156;SDS011;4613;48.392;9.998;2023-07-29T07:37:53;2.00;;;1.90;;
9156;SDS011;4613;48.392;9.998;2023-07-29T07:40:42;5.13;;;2.10;;
9156;SDS011;4613;48.392;9.998;2023-07-29T07:43:31;1.73;;;1.60;;
9156;SDS011;4613;48.392;9.998;2023-07-29T07:46:20;2.37;;;2.17;;
9156;SDS011;4613;48.392;9.998;2023-07-29T07:49:10;1.80;;;1.70;;
9156;SDS011;4613;48.392;9.998;2023-07-29T07:51:59;2.20;;;1.80;;
9156;SDS011;4613;48.392;9.998;2023-07-29T07:54:52;1.73;;;1.63;;
9156;SDS011;4613;48.392;9.998;2023-07-29T07:57:42;1.93;;;1.70;;
9156;SDS011;4613;48.392;9.998;2023-07-29T08:00:31;1.80;;;1.70;;
9156;SDS011;4613;48.392;9.998;2023-07-29T08:03:20;2.23;;;2.03;;
9156;SDS011;4613;48.392;9.998;2023-07-29T08:06:11;2.43;;;2.17;;
9156;SDS011;4613;48.392;9.998;2023-07-29T08:09:01;2.50;;;1.80;;
9156;SDS011;4613;48.392;9.998;2023-07-29T08:11:50;2.10;;;2.00;;
9156;SDS011;4613;48.392;9.998;2023-07-29T08:14:40;1.97;;;1.87;;
9156;SDS011;4613;48.392;9.998;2023-07-29T08:17:29;2.07;;;1.87;;
9156;SDS011;4613;48.392;9.998;2023-07-29T08:20:18;2.20;;;2.00;;
9156;SDS011;4613;48.392;9.998;2023-07-29T08:23:08;2.03;;;1.90;;
9156;SDS011;4613;48.392;9.998;2023-07-29T08:25:59;2.10;;;1.90;;
9156;SDS011;4613;48.392;9.998;2023-07-29T08:28:50;1.90;;;1.80;;
9156;SDS011;4613;48.392;9.998;2023-07-29T08:31:40;2.00;;;1.80;;
9156;SDS011;4613;48.392;9.998;2023-07-29T08:34:29;2.13;;;1.70;;
9156;SDS011;4613;48.392;9.998;2023-07-29T08:37:19;1.93;;;1.83;;
9156;SDS011;4613;48.392;9.998;2023-07-29T08:40:08;2.30;;;2.10;;
9156;SDS011;4613;48.392;9.998;2023-07-29T08:42:58;2.20;;;2.00;;
9156;SDS011;4613;48.392;9.998;2023-07-29T08:45:54;2.50;;;2.30;;
9156;SDS011;4613;48.392;9.998;2023-07-29T08:48:43;2.67;;;2.47;;
9156;SDS011;4613;48.392;9.998;2023-07-29T08:51:34;2.40;;;2.20;;
9156;SDS011;4613;48.392;9.998;2023-07-29T08:54:24;3.57;;;2.80;;
9156;SDS011;4613;48.392;9.998;2023-07-29T08:57:14;2.03;;;1.90;;
9156;SDS011;4613;48.392;9.998;2023-07-29T09:00:04;2.63;;;2.23;;
9156;SDS011;4613;48.392;9.998;2023-07-29T09:02:54;2.40;;;2.20;;
9156;SDS011;4613;48.392;9.998;2023-07-29T09:05:43;3.00;;;2.57;;
9156;SDS011;4613;48.392;9.998;2023-07-29T09:08:33;2.93;;;2.67;;
9156;SDS011;4613;48.392;9.998;2023-07-29T09:11:23;2.83;;;2.50;;
9156;SDS011;4613;48.392;9.998;2023-07-29T09:14:13;2.50;;;2.30;;
9156;SDS011;4613;48.392;9.998;2023-07-29T09:17:06;2.63;;;2.43;;
9156;SDS011;4613;48.392;9.998;2023-07-29T09:19:57;2.50;;;2.30;;
9156;SDS011;4613;48.392;9.998;2023-07-29T09:22:46;3.33;;;2.63;;
9156;SDS011;4613;48.392;9.998;2023-07-29T09:25:36;2.17;;;2.07;;
9156;SDS011;4613;48.392;9.998;2023-07-29T09:28:26;2.37;;;2.10;;
9156;SDS011;4613;48.392;9.998;2023-07-29T09:31:20;2.43;;;2.20;;
9156;SDS011;4613;48.392;9.998;2023-07-29T09:34:11;5.77;;;1.97;;
9156;SDS011;4613;48.392;9.998;2023-07-29T09:37:04;2.20;;;2.00;;
9156;SDS011;4613;48.392;9.998;2023-07-29T09:39:54;2.47;;;2.27;;
9156;SDS011;4613;48.392;9.998;2023-07-29T09:42:50;2.20;;;2.00;;
9156;SDS011;4613;48.392;9.998;2023-07-29T09:45:40;1.70;;;1.60;;
9156;SDS011;4613;48.392;9.998;2023-07-29T09:48:33;2.00;;;1.70;;
9156;SDS011;4613;48.392;9.998;2023-07-29T09:51:24;1.83;;;1.73;;
9156;SDS011;4613;48.392;9.998;2023-07-29T09:54:13;1.83;;;1.67;;
9156;SDS011;4613;48.392;9.998;2023-07-29T09:57:03;1.93;;;1.83;;
9156;SDS011;4613;48.392;9.998;2023-07-29T09:59:56;1.60;;;1.50;;
9156;SDS011;4613;48.392;9.998;2023-07-29T10:02:46;1.90;;;1.80;;
9156;SDS011;4613;48.392;9.998;2023-07-29T10:05:36;1.67;;;1.57;;
9156;SDS011;4613;48.392;9.998;2023-07-29T10:08:29;2.23;;;1.67;;
9156;SDS011;4613;48.392;9.998;2023-07-29T10:11:20;1.70;;;1.60;;
9156;SDS011;4613;48.392;9.998;2023-07-29T10:14:10;1.53;;;1.43;;
9156;SDS011;4613;48.392;9.998;2023-07-29T10:17:01;1.80;;;1.70;;
9156;SDS011;4613;48.392;9.998;2023-07-29T10:19:51;1.37;;;1.27;;
9156;SDS011;4613;48.392;9.998;2023-07-29T10:22:41;1.60;;;1.50;;
9156;SDS011;4613;48.392;9.998;2023-07-29T10:25:37;1.77;;;1.67;;
9156;SDS011;4613;48.392;9.998;2023-07-29T10:28:30;1.30;;;1.20;;
9156;SDS011;4613;48.392;9.998;2023-07-29T10:31:21;1.50;;;1.40;;
9156;SDS011;4613;48.392;9.998;2023-07-29T10:34:12;2.60;;;2.00;;
9156;SDS011;4613;48.392;9.998;2023-07-29T10:37:02;2.00;;;1.80;;
9156;SDS011;4613;48.392;9.998;2023-07-29T10:39:53;1.50;;;1.40;;
9156;SDS011;4613;48.392;9.998;2023-07-29T10:43:02;2.13;;;1.37;;
9156;SDS011;4613;48.392;9.998;2023-07-29T10:46:22;1.60;;;1.50;;
9156;SDS011;4613;48.392;9.998;2023-07-29T10:49:12;1.80;;;1.70;;
9156;SDS011;4613;48.392;9.998;2023-07-29T10:52:01;1.80;;;1.70;;
9156;SDS011;4613;48.392;9.998;2023-07-29T10:54:50;2.87;;;1.60;;
9156;SDS011;4613;48.392;9.998;2023-07-29T10:57:39;2.13;;;1.80;;
9156;SDS011;4613;48.392;9.998;2023-07-29T11:00:33;2.60;;;1.87;;
9156;SDS011;4613;48.392;9.998;2023-07-29T11:03:23;2.00;;;1.60;;
9156;SDS011;4613;48.392;9.998;2023-07-29T11:06:17;2.53;;;1.53;;
9156;SDS011;4613;48.392;9.998;2023-07-29T11:15:47;1.70;;;1.60;;
9156;SDS011;4613;48.392;9.998;2023-07-29T11:18:45;1.80;;;1.70;;
9156;SDS011;4613;48.392;9.998;2023-07-29T11:21:43;1.97;;;1.80;;
9156;SDS011;4613;48.392;9.998;2023-07-29T11:24:41;2.03;;;1.60;;
9156;SDS011;4613;48.392;9.998;2023-07-29T11:27:37;1.83;;;1.73;;
9156;SDS011;4613;48.392;9.998;2023-07-29T11:30:34;1.63;;;1.53;;
9156;SDS011;4613;48.392;9.998;2023-07-29T11:33:34;1.60;;;1.50;;
9156;SDS011;4613;48.392;9.998;2023-07-29T11:36:30;1.63;;;1.53;;
9156;SDS011;4613;48.392;9.998;2023-07-29T11:39:26;1.60;;;1.50;;
9156;SDS011;4613;48.392;9.998;2023-07-29T11:42:22;1.40;;;1.30;;
9156;SDS011;4613;48.392;9.998;2023-07-29T11:45:20;1.40;;;1.30;;
9156;SDS011;4613;48.392;9.998;2023-07-29T11:48:16;1.33;;;1.23;;
9156;SDS011;4613;48.392;9.998;2023-07-29T11:51:12;1.63;;;1.50;;
9156;SDS011;4613;48.392;9.998;2023-07-29T11:54:09;1.77;;;1.40;;
9156;SDS011;4613;48.392;9.998;2023-07-29T11:57:06;1.60;;;1.50;;
9156;SDS011;4613;48.392;9.998;2023-07-29T12:00:03;1.20;;;1.10;;
9156;SDS011;4613;48.392;9.998;2023-07-29T12:03:01;1.10;;;1.10;;
9156;SDS011;4613;48.392;9.998;2023-07-29T12:06:03;1.50;;;1.40;;
9156;SDS011;4613;48.392;9.998;2023-07-29T12:08:59;1.83;;;1.30;;
9156;SDS011;4613;48.392;9.998;2023-07-29T12:11:55;1.20;;;1.20;;
9156;SDS011;4613;48.392;9.998;2023-07-29T12:14:53;1.07;;;1.07;;
9156;SDS011;4613;48.392;9.998;2023-07-29T12:17:52;1.00;;;1.00;;
9156;SDS011;4613;48.392;9.998;2023-07-29T12:20:51;1.20;;;1.20;;
9156;SDS011;4613;48.392;9.998;2023-07-29T12:23:47;4.20;;;1.10;;
9156;SDS011;4613;48.392;9.998;2023-07-29T12:26:46;1.20;;;1.10;;
9156;SDS011;4613;48.392;9.998;2023-07-29T12:29:42;1.10;;;1.10;;
9156;SDS011;4613;48.392;9.998;2023-07-29T12:32:46;0.90;;;0.90;;
9156;SDS011;4613;48.392;9.998;2023-07-29T12:35:42;1.37;;;1.27;;
9156;SDS011;4613;48.392;9.998;2023-07-29T12:38:42;1.23;;;1.13;;
9156;SDS011;4613;48.392;9.998;2023-07-29T12:41:38;1.10;;;1.10;;
9156;SDS011;4613;48.392;9.998;2023-07-29T12:44:35;1.20;;;1.13;;
9156;SDS011;4613;48.392;9.998;2023-07-29T12:47:33;1.13;;;1.10;;
9156;SDS011;4613;48.392;9.998;2023-07-29T12:50:29;1.40;;;1.30;;
9156;SDS011;4613;48.392;9.998;2023-07-29T12:53:25;1.30;;;1.20;;
9156;SDS011;4613;48.392;9.998;2023-07-29T12:56:21;1.10;;;1.10;;
9156;SDS011;4613;48.392;9.998;2023-07-29T12:59:17;1.77;;;1.33;;
9156;SDS011;4613;48.392;9.998;2023-07-29T13:02:13;1.30;;;1.20;;
9156;SDS011;4613;48.392;9.998;2023-07-29T13:05:10;1.30;;;1.20;;
9156;SDS011;4613;48.392;9.998;2023-07-29T13:08:14;1.23;;;1.23;;
9156;SDS011;4613;48.392;9.998;2023-07-29T13:11:10;1.33;;;1.20;;
9156;SDS011;4613;48.392;9.998;2023-07-29T13:14:06;1.30;;;1.20;;
9156;SDS011;4613;48.392;9.998;2023-07-29T13:16:56;1.30;;;1.20;;
9156;SDS011;4613;48.392;9.998;2023-07-29T13:19:46;1.10;;;1.10;;
9156;SDS011;4613;48.392;9.998;2023-07-29T13:22:35;1.30;;;1.20;;
9156;SDS011;4613;48.392;9.998;2023-07-29T13:25:25;1.33;;;1.23;;
9156;SDS011;4613;48.392;9.998;2023-07-29T13:28:14;1.40;;;1.30;;
9156;SDS011;4613;48.392;9.998;2023-07-29T13:31:04;1.00;;;1.00;;
9156;SDS011;4613;48.392;9.998;2023-07-29T13:33:53;1.07;;;1.07;;
9156;SDS011;4613;48.392;9.998;2023-07-29T13:36:42;3.67;;;1.40;;
9156;SDS011;4613;48.392;9.998;2023-07-29T13:39:32;1.17;;;1.10;;
9156;SDS011;4613;48.392;9.998;2023-07-29T13:42:22;1.17;;;1.17;;
9156;SDS011;4613;48.392;9.998;2023-07-29T13:45:11;1.20;;;1.20;;
9156;SDS011;4613;48.392;9.998;2023-07-29T13:48:00;1.00;;;1.00;;
9156;SDS011;4613;48.392;9.998;2023-07-29T13:50:50;1.27;;;1.20;;
9156;SDS011;4613;48.392;9.998;2023-07-29T13:53:40;1.13;;;1.03;;
9156;SDS011;4613;48.392;9.998;2023-07-29T13:56:30;1.23;;;1.13;;
9156;SDS011;4613;48.392;9.998;2023-07-29T13:59:19;1.40;;;1.30;;
9156;SDS011;4613;48.392;9.998;2023-07-29T14:02:09;1.13;;;1.10;;
9156;SDS011;4613;48.392;9.998;2023-07-29T14:04:58;1.10;;;1.10;;
9156;SDS011;4613;48.392;9.998;2023-07-29T14:07:47;1.33;;;1.17;;
9156;SDS011;4613;48.392;9.998;2023-07-29T14:10:38;1.30;;;1.20;;
9156;SDS011;4613;48.392;9.998;2023-07-29T14:13:27;0.87;;;0.87;;
9156;SDS011;4613;48.392;9.998;2023-07-29T14:16:16;1.10;;;1.10;;
9156;SDS011;4613;48.392;9.998;2023-07-29T14:19:05;1.40;;;1.10;;
9156;SDS011;4613;48.392;9.998;2023-07-29T14:21:57;1.10;;;1.10;;
9156;SDS011;4613;48.392;9.998;2023-07-29T14:24:46;1.17;;;1.17;;
9156;SDS011;4613;48.392;9.998;2023-07-29T14:27:35;1.20;;;1.13;;
9156;SDS011;4613;48.392;9.998;2023-07-29T14:30:25;1.40;;;1.30;;
9156;SDS011;4613;48.392;9.998;2023-07-29T14:33:14;1.10;;;1.10;;
9156;SDS011;4613;48.392;9.998;2023-07-29T14:36:03;1.10;;;1.10;;
9156;SDS011;4613;48.392;9.998;2023-07-29T14:38:53;1.17;;;1.17;;
9156;SDS011;4613;48.392;9.998;2023-07-29T14:41:42;1.00;;;1.00;;
9156;SDS011;4613;48.392;9.998;2023-07-29T14:44:31;1.10;;;1.10;;
9156;SDS011;4613;48.392;9.998;2023-07-29T14:47:20;1.30;;;1.20;;
9156;SDS011;4613;48.392;9.998;2023-07-29T14:50:10;1.30;;;1.20;;
9156;SDS011;4613;48.392;9.998;2023-07-29T14:52:59;1.30;;;1.20;;
9156;SDS011;4613;48.392;9.998;2023-07-29T14:55:48;1.37;;;1.10;;
9156;SDS011;4613;48.392;9.998;2023-07-29T14:58:45;1.27;;;1.17;;
9156;SDS011;4613;48.392;9.998;2023-07-29T15:01:40;1.20;;;1.10;;
9156;SDS011;4613;48.392;9.998;2023-07-29T15:04:42;1.10;;;1.10;;
9156;SDS011;4613;48.392;9.998;2023-07-29T15:07:38;1.43;;;1.20;;
9156;SDS011;4613;48.392;9.998;2023-07-29T15:10:45;1.47;;;1.37;;
9156;SDS011;4613;48.392;9.998;2023-07-29T15:13:41;1.00;;;1.00;;
9156;SDS011;4613;48.392;9.998;2023-07-29T15:16:37;1.10;;;1.10;;
9156;SDS011;4613;48.392;9.998;2023-07-29T15:19:34;1.30;;;1.20;;
9156;SDS011;4613;48.392;9.998;2023-07-29T15:22:30;1.10;;;1.10;;
9156;SDS011;4613;48.392;9.998;2023-07-29T15:25:29;1.63;;;1.40;;
9156;SDS011;4613;48.392;9.998;2023-07-29T15:28:25;0.90;;;0.90;;
9156;SDS011;4613;48.392;9.998;2023-07-29T15:31:15;1.40;;;1.30;;
9156;SDS011;4613;48.392;9.998;2023-07-29T15:34:05;1.40;;;1.30;;
9156;SDS011;4613;48.392;9.998;2023-07-29T15:36:54;1.20;;;1.13;;
9156;SDS011;4613;48.392;9.998;2023-07-29T15:39:44;1.30;;;1.20;;
9156;SDS011;4613;48.392;9.998;2023-07-29T15:42:33;1.67;;;1.40;;
9156;SDS011;4613;48.392;9.998;2023-07-29T15:45:22;1.10;;;1.10;;
9156;SDS011;4613;48.392;9.998;2023-07-29T15:48:12;1.47;;;1.37;;
9156;SDS011;4613;48.392;9.998;2023-07-29T15:51:02;2.03;;;1.30;;
9156;SDS011;4613;48.392;9.998;2023-07-29T15:53:57;1.37;;;1.27;;
9156;SDS011;4613;48.392;9.998;2023-07-29T15:56:53;1.10;;;1.10;;
9156;SDS011;4613;48.392;9.998;2023-07-29T15:59:49;1.50;;;1.40;;
9156;SDS011;4613;48.392;9.998;2023-07-29T16:02:46;1.60;;;1.50;;
9156;SDS011;4613;48.392;9.998;2023-07-29T16:05:48;1.40;;;1.30;;
9156;SDS011;4613;48.392;9.998;2023-07-29T16:08:43;1.70;;;1.30;;
9156;SDS011;4613;48.392;9.998;2023-07-29T16:11:39;1.70;;;1.60;;
9156;SDS011;4613;48.392;9.998;2023-07-29T16:14:35;1.57;;;1.23;;
9156;SDS011;4613;48.392;9.998;2023-07-29T16:17:31;1.30;;;1.20;;
9156;SDS011;4613;48.392;9.998;2023-07-29T16:20:28;1.10;;;1.10;;
9156;SDS011;4613;48.392;9.998;2023-07-29T16:23:23;0.90;;;0.90;;
9156;SDS011;4613;48.392;9.998;2023-07-29T16:26:20;1.20;;;1.10;;
9156;SDS011;4613;48.392;9.998;2023-07-29T16:29:15;1.10;;;1.00;;
9156;SDS011;4613;48.392;9.998;2023-07-29T16:32:11;1.20;;;1.10;;
9156;SDS011;4613;48.392;9.998;2023-07-29T16:35:01;2.40;;;1.30;;
9156;SDS011;4613;48.392;9.998;2023-07-29T16:37:50;1.33;;;1.23;;
9156;SDS011;4613;48.392;9.998;2023-07-29T16:40:39;1.17;;;1.10;;
9156;SDS011;4613;48.392;9.998;2023-07-29T16:43:28;1.10;;;1.10;;
9156;SDS011;4613;48.392;9.998;2023-07-29T16:46:18;2.67;;;1.30;;
9156;SDS011;4613;48.392;9.998;2023-07-29T16:49:07;3.03;;;1.20;;
9156;SDS011;4613;48.392;9.998;2023-07-29T16:52:03;1.47;;;1.37;;
9156;SDS011;4613;48.392;9.998;2023-07-29T16:54:53;1.53;;;1.43;;
9156;SDS011;4613;48.392;9.998;2023-07-29T16:57:42;1.27;;;1.17;;
9156;SDS011;4613;48.392;9.998;2023-07-29T17:00:31;1.20;;;1.10;;
9156;SDS011;4613;48.392;9.998;2023-07-29T17:03:21;1.50;;;1.33;;
9156;SDS011;4613;48.392;9.998;2023-07-29T17:06:13;1.40;;;1.30;;
9156;SDS011;4613;48.392;9.998;2023-07-29T17:09:03;1.67;;;1.47;;
9156;SDS011;4613;48.392;9.998;2023-07-29T17:11:55;1.93;;;1.57;;
9156;SDS011;4613;48.392;9.998;2023-07-29T17:14:48;1.93;;;1.40;;
9156;SDS011;4613;48.392;9.998;2023-07-29T17:17:45;1.60;;;1.50;;
9156;SDS011;4613;48.392;9.998;2023-07-29T17:20:34;1.40;;;1.30;;
9156;SDS011;4613;48.392;9.998;2023-07-29T17:23:27;1.50;;;1.40;;
9156;SDS011;4613;48.392;9.998;2023-07-29T17:26:16;1.53;;;1.43;;
9156;SDS011;4613;48.392;9.998;2023-07-29T17:29:05;1.40;;;1.30;;
9156;SDS011;4613;48.392;9.998;2023-07-29T17:31:54;2.23;;;1.70;;
9156;SDS011;4613;48.392;9.998;2023-07-29T17:34:43;3.23;;;1.80;;
9156;SDS011;4613;48.392;9.998;2023-07-29T17:37:33;1.53;;;1.43;;
9156;SDS011;4613;48.392;9.998;2023-07-29T17:40:23;3.60;;;1.40;;
9156;SDS011;4613;48.392;9.998;2023-07-29T17:43:13;1.50;;;1.40;;
9156;SDS011;4613;48.392;9.998;2023-07-29T17:46:02;2.77;;;1.60;;
9156;SDS011;4613;48.392;9.998;2023-07-29T17:48:51;1.83;;;1.67;;
9156;SDS011;4613;48.392;9.998;2023-07-29T17:51:41;1.20;;;1.20;;
9156;SDS011;4613;48.392;9.998;2023-07-29T17:54:31;1.60;;;1.50;;
9156;SDS011;4613;48.392;9.998;2023-07-29T17:57:20;2.90;;;1.70;;
9156;SDS011;4613;48.392;9.998;2023-07-29T18:00:16;1.73;;;1.60;;
9156;SDS011;4613;48.392;9.998;2023-07-29T18:03:15;1.60;;;1.50;;
9156;SDS011;4613;48.392;9.998;2023-07-29T18:06:25;1.83;;;1.73;;
9156;SDS011;4613;48.392;9.998;2023-07-29T18:09:23;3.30;;;1.97;;
9156;SDS011;4613;48.392;9.998;2023-07-29T18:12:13;1.93;;;1.83;;
9156;SDS011;4613;48.392;9.998;2023-07-29T18:15:05;1.70;;;1.60;;
9156;SDS011;4613;48.392;9.998;2023-07-29T18:17:56;4.30;;;2.00;;
9156;SDS011;4613;48.392;9.998;2023-07-29T18:20:47;1.90;;;1.70;;